Chem Altamira — D5FU2 — position and weather

sailwx.info

Track history (hours):
 
Tides and Currents Weather Stations Pressure Air Temp Water Temp Dewpoint Dewpoint Depression Visibility Wind Speed Wind Dir Waves Ship Positions

Chem Altamira

Last reported at 2017-Nov-20 00:23 UTC. Time now 2017-Nov-21 13:45 UTC.
Position N 51°24' E 002°35'.

Length 155 m; draft 10 m.

Type: Tanker. MMSI: 636016362.

Date/timePositionNaut miles runAvg speedWind from/ knotsBaromVisibWave heightAir tempDewpointWater temp
2017-Nov-20 00:23N 51°24' E 002°35'0 0.2
2017-Nov-19 23:54N 51°24' E 002°35'0 0.0
2017-Nov-19 19:53N 51°24' E 002°35'0 0.0
2017-Nov-19 19:26N 51°24' E 002°35'0 0.1
2017-Nov-19 16:56N 51°24' E 002°35'0 0.2
2017-Nov-19 16:26N 51°24' E 002°35'0 0.2
2017-Nov-19 15:59N 51°24' E 002°35'0 0.0
2017-Nov-19 15:29N 51°24' E 002°35'0 0.0
2017-Nov-19 14:59N 51°24' E 002°35'0 0.0
2017-Nov-19 14:26N 51°24' E 002°35'0 0.0
2017-Nov-19 13:44N 51°24' E 002°35'0 0.0
2017-Nov-19 13:30N 51°24' E 002°35'0 0.1
2017-Nov-19 12:57N 51°24' E 002°35'0 0.1
2017-Nov-19 12:29N 51°24' E 002°35'0 0.2
2017-Nov-19 12:00N 51°24' E 002°35'0 0.1
2017-Nov-19 09:08N 51°24' E 002°35'2 0.7
2017-Nov-19 06:02N 51°23' E 002°32'0 9.9
2017-Nov-19 05:59N 51°23' E 002°31'511.2
2017-Nov-19 05:30N 51°20' E 002°23'612.3
2017-Nov-19 05:00N 51°17' E 002°15'612.8
2017-Nov-19 04:30N 51°14' E 002°06'713.1
2017-Nov-19 04:00N 51°11' E 001°57'713.3
2017-Nov-19 03:30N 51°07' E 001°48'713.5
2017-Nov-19 03:00N 51°03' E 001°40'713.9
2017-Nov-19 02:30N 50°58' E 001°33'713.9
2017-Nov-19 02:00N 50°52' E 001°27'914.0
2017-Nov-19 01:23N 50°43' E 001°23'4113.4
2017-Nov-18 22:17N 50°24' E 000°25'414.6
2017-Nov-18 22:00N 50°23' E 000°19'714.9
2017-Nov-18 21:31N 50°21' E 000°08'815.2
2017-Nov-18 21:00N 50°19' W 000°04'816.0
2017-Nov-18 20:30N 50°17' W 000°16'4116.1
2017-Nov-18 17:56N 50°05' W 001°18'615.0
2017-Nov-18 17:31N 50°04' W 001°28'714.2
2017-Nov-18 17:00N 50°02' W 001°38'713.4
2017-Nov-18 16:30N 50°01' W 001°49'612.7
2017-Nov-18 16:00N 49°58' W 001°58'3111.3
2017-Nov-18 13:16N 49°50' W 002°44'311.5
2017-Nov-18 13:00N 49°49' W 002°49'611.7
2017-Nov-18 12:29N 49°48' W 002°58'612.1
2017-Nov-18 11:57N 49°47' W 003°08'712.4
2017-Nov-18 11:24N 49°45' W 003°18'1412.7
2017-Nov-18 10:18N 49°42' W 003°39'512.8
2017-Nov-18 09:53N 49°41' W 003°47'2013.1
2017-Nov-18 08:21N 49°35' W 004°17'613.4
2017-Nov-18 07:53N 49°34' W 004°26'713.7
2017-Nov-18 07:21N 49°32' W 004°37'714.1
2017-Nov-18 06:52N 49°30' W 004°47'614.2
2017-Nov-18 06:29N 49°29' W 004°55'714.4
2017-Nov-18 05:59N 49°26' W 005°06'714.6
2017-Nov-18 05:29N 49°23' W 005°16'1814.8
2017-Nov-18 04:16N 49°15' W 005°41'515.0
2017-Nov-18 03:58N 49°14' W 005°47'1314.9
2017-Nov-18 03:06N 49°08' W 006°05'214.8
2017-Nov-18 02:57N 49°07' W 006°08'714.8
2017-Nov-18 02:29N 49°04' W 006°18'814.6
2017-Nov-18 01:56N 49°01' W 006°29'1414.3
2017-Nov-18 00:59N 48°55' W 006°48'1113.8
2017-Nov-18 00:12N 48°51' W 007°03'413.4
2017-Nov-17 23:53N 48°49' W 007°09'613.1
2017-Nov-17 23:28N 48°47' W 007°16'812.8
2017-Nov-17 22:53N 48°44' W 007°27'  
Track history (hours):
 
Tides and Currents Weather Stations Pressure Air Temp Water Temp Dewpoint Dewpoint Depression Visibility Wind Speed Wind Dir Waves Ship Positions

Chem Altamira

Last reported at 2017-Nov-20 00:23 UTC. Time now 2017-Nov-21 13:45 UTC.
Position N 51°24' E 002°35'.

Length 155 m; draft 10 m.

Type: Tanker. MMSI: 636016362.

Date/timePositionNaut miles runAvg speedWind from/ knotsBaromVisibWave heightAir tempDewpointWater temp
2017-Nov-20 00:23N 51°24' E 002°35'0 0.2
2017-Nov-19 23:54N 51°24' E 002°35'0 0.0
2017-Nov-19 19:53N 51°24' E 002°35'0 0.0
2017-Nov-19 19:26N 51°24' E 002°35'0 0.1
2017-Nov-19 16:56N 51°24' E 002°35'0 0.2
2017-Nov-19 16:26N 51°24' E 002°35'0 0.2
2017-Nov-19 15:59N 51°24' E 002°35'0 0.0
2017-Nov-19 15:29N 51°24' E 002°35'0 0.0
2017-Nov-19 14:59N 51°24' E 002°35'0 0.0
2017-Nov-19 14:26N 51°24' E 002°35'0 0.0
2017-Nov-19 13:44N 51°24' E 002°35'0 0.0
2017-Nov-19 13:30N 51°24' E 002°35'0 0.1
2017-Nov-19 12:57N 51°24' E 002°35'0 0.1
2017-Nov-19 12:29N 51°24' E 002°35'0 0.2
2017-Nov-19 12:00N 51°24' E 002°35'0 0.1
2017-Nov-19 09:08N 51°24' E 002°35'2 0.7
2017-Nov-19 06:02N 51°23' E 002°32'0 9.9
2017-Nov-19 05:59N 51°23' E 002°31'511.2
2017-Nov-19 05:30N 51°20' E 002°23'612.3
2017-Nov-19 05:00N 51°17' E 002°15'612.8
2017-Nov-19 04:30N 51°14' E 002°06'713.1
2017-Nov-19 04:00N 51°11' E 001°57'713.3
2017-Nov-19 03:30N 51°07' E 001°48'713.5
2017-Nov-19 03:00N 51°03' E 001°40'713.9
2017-Nov-19 02:30N 50°58' E 001°33'713.9
2017-Nov-19 02:00N 50°52' E 001°27'914.0
2017-Nov-19 01:23N 50°43' E 001°23'4113.4
2017-Nov-18 22:17N 50°24' E 000°25'414.6
2017-Nov-18 22:00N 50°23' E 000°19'714.9
2017-Nov-18 21:31N 50°21' E 000°08'815.2
2017-Nov-18 21:00N 50°19' W 000°04'816.0
2017-Nov-18 20:30N 50°17' W 000°16'4116.1
2017-Nov-18 17:56N 50°05' W 001°18'615.0
2017-Nov-18 17:31N 50°04' W 001°28'714.2
2017-Nov-18 17:00N 50°02' W 001°38'713.4
2017-Nov-18 16:30N 50°01' W 001°49'612.7
2017-Nov-18 16:00N 49°58' W 001°58'3111.3
2017-Nov-18 13:16N 49°50' W 002°44'311.5
2017-Nov-18 13:00N 49°49' W 002°49'611.7
2017-Nov-18 12:29N 49°48' W 002°58'612.1
2017-Nov-18 11:57N 49°47' W 003°08'712.4
2017-Nov-18 11:24N 49°45' W 003°18'1412.7
2017-Nov-18 10:18N 49°42' W 003°39'512.8
2017-Nov-18 09:53N 49°41' W 003°47'2013.1
2017-Nov-18 08:21N 49°35' W 004°17'613.4
2017-Nov-18 07:53N 49°34' W 004°26'713.7
2017-Nov-18 07:21N 49°32' W 004°37'714.1
2017-Nov-18 06:52N 49°30' W 004°47'614.2
2017-Nov-18 06:29N 49°29' W 004°55'714.4
2017-Nov-18 05:59N 49°26' W 005°06'714.6
2017-Nov-18 05:29N 49°23' W 005°16'1814.8
2017-Nov-18 04:16N 49°15' W 005°41'515.0
2017-Nov-18 03:58N 49°14' W 005°47'1314.9
2017-Nov-18 03:06N 49°08' W 006°05'214.8
2017-Nov-18 02:57N 49°07' W 006°08'714.8
2017-Nov-18 02:29N 49°04' W 006°18'814.6
2017-Nov-18 01:56N 49°01' W 006°29'1414.3
2017-Nov-18 00:59N 48°55' W 006°48'1113.8
2017-Nov-18 00:12N 48°51' W 007°03'413.4
2017-Nov-17 23:53N 48°49' W 007°09'613.1
2017-Nov-17 23:28N 48°47' W 007°16'812.8
2017-Nov-17 22:53N 48°44' W 007°27'  

Dump ship's entire track history